Hakuhomaru — JJ4011 — position and weather

sailwx.info

Track history (hours):
 
Tides and Currents Weather Stations Pressure Air Temp Water Temp Dewpoint Dewpoint Depression Visibility Wind Speed Wind Dir Waves Ship Positions

Hakuhomaru

Last reported at 2014-Aug-18 05:15 UTC. Time now 2014-Aug-21 06:23 UTC.
Position N 34°38' E 135°29'.

Length 38 m; draft 3.3 m.

Type: Tug. MMSI: 431401584.

Date/timePositionNaut miles runAvg speedWind from/ knotsBaromVisibWave heightAir tempDewpointWater temp
2014-Aug-18 05:15N 34°38' E 135°29'0 0.0
2014-Aug-17 00:31N 34°38' E 135°29'3 3.2
2014-Aug-16 23:33N 34°39' E 135°25'1110.7
2014-Aug-16 22:33N 34°41' E 135°12'0 0.0
2014-Aug-16 06:33N 34°41' E 135°12'0 0.0
2014-Aug-16 05:34N 34°41' E 135°12'1 0.9
2014-Aug-16 04:34N 34°40' E 135°13'0 0.0
2014-Aug-16 03:33N 34°40' E 135°13'3 2.9
2014-Aug-16 02:33N 34°42' E 135°16'0 0.1
2014-Aug-16 01:33N 34°42' E 135°16'1 1.1
2014-Aug-16 00:34N 34°41' E 135°15'1 1.4
2014-Aug-15 23:33N 34°40' E 135°15'1 0.6
2014-Aug-15 22:33N 34°39' E 135°15'1 1.0
2014-Aug-15 21:33N 34°40' E 135°15'2 2.1
2014-Aug-15 20:33N 34°41' E 135°12'0 0.0
2014-Aug-15 10:28N 34°41' E 135°12'4 4.6
2014-Aug-15 09:34N 34°41' E 135°17'1 0.7
2014-Aug-15 08:33N 34°41' E 135°17'2 2.5
2014-Aug-15 07:33N 34°40' E 135°14'1 1.1
2014-Aug-15 06:33N 34°41' E 135°12'0 0.0
2014-Aug-15 05:33N 34°41' E 135°12'0 0.0
2014-Aug-15 04:34N 34°41' E 135°12'0 0.2
2014-Aug-15 03:34N 34°40' E 135°12'2 1.7
2014-Aug-15 02:33N 34°40' E 135°14'2 1.7
2014-Aug-15 01:33N 34°41' E 135°14'0 0.0
2014-Aug-15 00:33N 34°41' E 135°14'1 0.6
2014-Aug-14 23:33N 34°41' E 135°15'2 1.9
2014-Aug-14 22:34N 34°39' E 135°15'1 1.2
2014-Aug-14 21:33N 34°40' E 135°15'2 2.0
2014-Aug-14 20:33N 34°41' E 135°12'0 0.0
2014-Aug-14 00:33N 34°41' E 135°12'4 4.2
2014-Aug-13 23:33N 34°41' E 135°17'1 1.2
2014-Aug-13 22:33N 34°40' E 135°18'3 2.6
2014-Aug-13 21:33N 34°41' E 135°15'2 2.4
2014-Aug-13 20:33N 34°41' E 135°12'0 0.0
2014-Aug-13 11:30N 34°41' E 135°12'2 2.6
2014-Aug-13 10:33N 34°41' E 135°15'2 2.4
2014-Aug-13 09:33N 34°41' E 135°12'0 0.0
2014-Aug-13 08:33N 34°41' E 135°12'0 0.0
2014-Aug-13 07:33N 34°41' E 135°12'0 0.0
2014-Aug-13 06:33N 34°41' E 135°12'4 4.0
2014-Aug-13 05:33N 34°41' E 135°17'4 3.7
2014-Aug-13 04:33N 34°41' E 135°12'1 0.6
2014-Aug-13 03:33N 34°41' E 135°12'0 0.0
2014-Aug-13 02:33N 34°41' E 135°12'2 1.7
2014-Aug-13 01:33N 34°40' E 135°14'2 1.8
2014-Aug-13 00:33N 34°40' E 135°16'2 2.3
2014-Aug-12 23:33N 34°42' E 135°18'2 2.1
2014-Aug-12 22:33N 34°40' E 135°19'4 3.9
2014-Aug-12 21:33N 34°41' E 135°14'2 1.6
2014-Aug-12 20:34N 34°41' E 135°12'0 0.0
2014-Aug-11 15:33N 34°41' E 135°12'2 1.9
2014-Aug-11 14:33N 34°41' E 135°14'0 0.0
2014-Aug-11 13:33N 34°41' E 135°14'3 2.6
2014-Aug-11 12:33N 34°41' E 135°18'0 0.3
2014-Aug-11 11:33N 34°41' E 135°17'4 4.1
2014-Aug-11 10:33N 34°41' E 135°12'0 0.0
2014-Aug-11 09:33N 34°41' E 135°12'0 0.0
2014-Aug-11 08:33N 34°41' E 135°12'1 1.0
2014-Aug-11 07:33N 34°41' E 135°13'1 0.9
2014-Aug-11 06:33N 34°40' E 135°14'1 0.6
2014-Aug-11 05:33N 34°40' E 135°15'2 2.1
2014-Aug-11 04:33N 34°41' E 135°12'0 0.0
2014-Aug-11 03:33N 34°41' E 135°12'4 4.1
2014-Aug-11 02:33N 34°41' E 135°17'4 4.1
2014-Aug-11 01:33N 34°41' E 135°12'0 0.0
2014-Aug-11 00:33N 34°41' E 135°12'0 0.0
2014-Aug-10 23:33N 34°41' E 135°12'0 0.0
2014-Aug-10 22:33N 34°41' E 135°12'0 0.0
2014-Aug-10 06:11N 34°41' E 135°12'0 0.0
2014-Aug-10 05:33N 34°41' E 135°12'0 0.4
2014-Aug-10 04:33N 34°41' E 135°12'0 0.1
2014-Aug-10 03:33N 34°41' E 135°12'2 1.7
2014-Aug-10 02:33N 34°41' E 135°14'1 1.1
2014-Aug-10 01:33N 34°42' E 135°13'0 0.0
2014-Aug-10 00:33N 34°42' E 135°13'0 0.0
2014-Aug-09 23:33N 34°42' E 135°13'0 0.0
2014-Aug-09 22:33N 34°42' E 135°13'0 0.0
2014-Aug-09 21:33N 34°42' E 135°13'0 0.0
2014-Aug-09 20:33N 34°42' E 135°13'0 0.0
2014-Aug-09 19:33N 34°42' E 135°13'0 0.0
2014-Aug-09 18:33N 34°42' E 135°13'0 0.0
2014-Aug-09 17:33N 34°42' E 135°13'0 0.0
2014-Aug-09 16:33N 34°42' E 135°13'0 0.0
2014-Aug-09 15:33N 34°42' E 135°13'0 0.0
2014-Aug-09 14:33N 34°42' E 135°13'0 0.0
2014-Aug-09 13:33N 34°42' E 135°13'0 0.0
2014-Aug-09 12:33N 34°42' E 135°13'0 0.0
2014-Aug-09 11:33N 34°42' E 135°13'0 0.0
2014-Aug-09 10:33N 34°42' E 135°13'0 0.2
2014-Aug-09 09:33N 34°42' E 135°13'0 0.0
2014-Aug-09 08:33N 34°42' E 135°13'0 0.0
2014-Aug-09 07:33N 34°42' E 135°13'0 0.0
2014-Aug-09 06:33N 34°42' E 135°13'0 0.0
2014-Aug-09 05:33N 34°42' E 135°13'0 0.3
2014-Aug-09 04:33N 34°42' E 135°13'1 0.1
2014-Aug-08 19:33N 34°41' E 135°12'2 1.7
2014-Aug-08 18:33N 34°40' E 135°14'0 0.3
2014-Aug-08 17:33N 34°40' E 135°14'0 0.0
2014-Aug-08 16:33N 34°40' E 135°14'0 0.1
2014-Aug-08 15:33N 34°40' E 135°14'2 2.1
2014-Aug-08 14:33N 34°39' E 135°16'3 3.0
2014-Aug-08 13:33N 34°42' E 135°16'1 1.1
2014-Aug-08 12:33N 34°41' E 135°15'2 1.8
2014-Aug-08 11:33N 34°40' E 135°14'1 0.8
2014-Aug-08 10:33N 34°39' E 135°15'2 2.0
2014-Aug-08 09:33N 34°41' E 135°14'0 0.0
2014-Aug-08 08:33N 34°41' E 135°14'2 1.9
2014-Aug-08 07:33N 34°39' E 135°15'1 0.8
2014-Aug-08 06:32N 34°40' E 135°14'2 1.9
2014-Aug-08 05:33N 34°41' E 135°12'  
Track history (hours):
 
Tides and Currents Weather Stations Pressure Air Temp Water Temp Dewpoint Dewpoint Depression Visibility Wind Speed Wind Dir Waves Ship Positions

Hakuhomaru

Last reported at 2014-Aug-18 05:15 UTC. Time now 2014-Aug-21 06:23 UTC.
Position N 34°38' E 135°29'.

Length 38 m; draft 3.3 m.

Type: Tug. MMSI: 431401584.

Date/timePositionNaut miles runAvg speedWind from/ knotsBaromVisibWave heightAir tempDewpointWater temp
2014-Aug-18 05:15N 34°38' E 135°29'0 0.0
2014-Aug-17 00:31N 34°38' E 135°29'3 3.2
2014-Aug-16 23:33N 34°39' E 135°25'1110.7
2014-Aug-16 22:33N 34°41' E 135°12'0 0.0
2014-Aug-16 06:33N 34°41' E 135°12'0 0.0
2014-Aug-16 05:34N 34°41' E 135°12'1 0.9
2014-Aug-16 04:34N 34°40' E 135°13'0 0.0
2014-Aug-16 03:33N 34°40' E 135°13'3 2.9
2014-Aug-16 02:33N 34°42' E 135°16'0 0.1
2014-Aug-16 01:33N 34°42' E 135°16'1 1.1
2014-Aug-16 00:34N 34°41' E 135°15'1 1.4
2014-Aug-15 23:33N 34°40' E 135°15'1 0.6
2014-Aug-15 22:33N 34°39' E 135°15'1 1.0
2014-Aug-15 21:33N 34°40' E 135°15'2 2.1
2014-Aug-15 20:33N 34°41' E 135°12'0 0.0
2014-Aug-15 10:28N 34°41' E 135°12'4 4.6
2014-Aug-15 09:34N 34°41' E 135°17'1 0.7
2014-Aug-15 08:33N 34°41' E 135°17'2 2.5
2014-Aug-15 07:33N 34°40' E 135°14'1 1.1
2014-Aug-15 06:33N 34°41' E 135°12'0 0.0
2014-Aug-15 05:33N 34°41' E 135°12'0 0.0
2014-Aug-15 04:34N 34°41' E 135°12'0 0.2
2014-Aug-15 03:34N 34°40' E 135°12'2 1.7
2014-Aug-15 02:33N 34°40' E 135°14'2 1.7
2014-Aug-15 01:33N 34°41' E 135°14'0 0.0
2014-Aug-15 00:33N 34°41' E 135°14'1 0.6
2014-Aug-14 23:33N 34°41' E 135°15'2 1.9
2014-Aug-14 22:34N 34°39' E 135°15'1 1.2
2014-Aug-14 21:33N 34°40' E 135°15'2 2.0
2014-Aug-14 20:33N 34°41' E 135°12'0 0.0
2014-Aug-14 00:33N 34°41' E 135°12'4 4.2
2014-Aug-13 23:33N 34°41' E 135°17'1 1.2
2014-Aug-13 22:33N 34°40' E 135°18'3 2.6
2014-Aug-13 21:33N 34°41' E 135°15'2 2.4
2014-Aug-13 20:33N 34°41' E 135°12'0 0.0
2014-Aug-13 11:30N 34°41' E 135°12'2 2.6
2014-Aug-13 10:33N 34°41' E 135°15'2 2.4
2014-Aug-13 09:33N 34°41' E 135°12'0 0.0
2014-Aug-13 08:33N 34°41' E 135°12'0 0.0
2014-Aug-13 07:33N 34°41' E 135°12'0 0.0
2014-Aug-13 06:33N 34°41' E 135°12'4 4.0
2014-Aug-13 05:33N 34°41' E 135°17'4 3.7
2014-Aug-13 04:33N 34°41' E 135°12'1 0.6
2014-Aug-13 03:33N 34°41' E 135°12'0 0.0
2014-Aug-13 02:33N 34°41' E 135°12'2 1.7
2014-Aug-13 01:33N 34°40' E 135°14'2 1.8
2014-Aug-13 00:33N 34°40' E 135°16'2 2.3
2014-Aug-12 23:33N 34°42' E 135°18'2 2.1
2014-Aug-12 22:33N 34°40' E 135°19'4 3.9
2014-Aug-12 21:33N 34°41' E 135°14'2 1.6
2014-Aug-12 20:34N 34°41' E 135°12'0 0.0
2014-Aug-11 15:33N 34°41' E 135°12'2 1.9
2014-Aug-11 14:33N 34°41' E 135°14'0 0.0
2014-Aug-11 13:33N 34°41' E 135°14'3 2.6
2014-Aug-11 12:33N 34°41' E 135°18'0 0.3
2014-Aug-11 11:33N 34°41' E 135°17'4 4.1
2014-Aug-11 10:33N 34°41' E 135°12'0 0.0
2014-Aug-11 09:33N 34°41' E 135°12'0 0.0
2014-Aug-11 08:33N 34°41' E 135°12'1 1.0
2014-Aug-11 07:33N 34°41' E 135°13'1 0.9
2014-Aug-11 06:33N 34°40' E 135°14'1 0.6
2014-Aug-11 05:33N 34°40' E 135°15'2 2.1
2014-Aug-11 04:33N 34°41' E 135°12'0 0.0
2014-Aug-11 03:33N 34°41' E 135°12'4 4.1
2014-Aug-11 02:33N 34°41' E 135°17'4 4.1
2014-Aug-11 01:33N 34°41' E 135°12'0 0.0
2014-Aug-11 00:33N 34°41' E 135°12'0 0.0
2014-Aug-10 23:33N 34°41' E 135°12'0 0.0
2014-Aug-10 22:33N 34°41' E 135°12'0 0.0
2014-Aug-10 06:11N 34°41' E 135°12'0 0.0
2014-Aug-10 05:33N 34°41' E 135°12'0 0.4
2014-Aug-10 04:33N 34°41' E 135°12'0 0.1
2014-Aug-10 03:33N 34°41' E 135°12'2 1.7
2014-Aug-10 02:33N 34°41' E 135°14'1 1.1
2014-Aug-10 01:33N 34°42' E 135°13'0 0.0
2014-Aug-10 00:33N 34°42' E 135°13'0 0.0
2014-Aug-09 23:33N 34°42' E 135°13'0 0.0
2014-Aug-09 22:33N 34°42' E 135°13'0 0.0
2014-Aug-09 21:33N 34°42' E 135°13'0 0.0
2014-Aug-09 20:33N 34°42' E 135°13'0 0.0
2014-Aug-09 19:33N 34°42' E 135°13'0 0.0
2014-Aug-09 18:33N 34°42' E 135°13'0 0.0
2014-Aug-09 17:33N 34°42' E 135°13'0 0.0
2014-Aug-09 16:33N 34°42' E 135°13'0 0.0
2014-Aug-09 15:33N 34°42' E 135°13'0 0.0
2014-Aug-09 14:33N 34°42' E 135°13'0 0.0
2014-Aug-09 13:33N 34°42' E 135°13'0 0.0
2014-Aug-09 12:33N 34°42' E 135°13'0 0.0
2014-Aug-09 11:33N 34°42' E 135°13'0 0.0
2014-Aug-09 10:33N 34°42' E 135°13'0 0.2
2014-Aug-09 09:33N 34°42' E 135°13'0 0.0
2014-Aug-09 08:33N 34°42' E 135°13'0 0.0
2014-Aug-09 07:33N 34°42' E 135°13'0 0.0
2014-Aug-09 06:33N 34°42' E 135°13'0 0.0
2014-Aug-09 05:33N 34°42' E 135°13'0 0.3
2014-Aug-09 04:33N 34°42' E 135°13'1 0.1
2014-Aug-08 19:33N 34°41' E 135°12'2 1.7
2014-Aug-08 18:33N 34°40' E 135°14'0 0.3
2014-Aug-08 17:33N 34°40' E 135°14'0 0.0
2014-Aug-08 16:33N 34°40' E 135°14'0 0.1
2014-Aug-08 15:33N 34°40' E 135°14'2 2.1
2014-Aug-08 14:33N 34°39' E 135°16'3 3.0
2014-Aug-08 13:33N 34°42' E 135°16'1 1.1
2014-Aug-08 12:33N 34°41' E 135°15'2 1.8
2014-Aug-08 11:33N 34°40' E 135°14'1 0.8
2014-Aug-08 10:33N 34°39' E 135°15'2 2.0
2014-Aug-08 09:33N 34°41' E 135°14'0 0.0
2014-Aug-08 08:33N 34°41' E 135°14'2 1.9
2014-Aug-08 07:33N 34°39' E 135°15'1 0.8
2014-Aug-08 06:32N 34°40' E 135°14'2 1.9
2014-Aug-08 05:33N 34°41' E 135°12'  

Dump ship's entire track history